createdAt,value
2023-04-09T00:00:17.716Z,99028.09
2023-04-09T00:02:44.551Z,99024.56
2023-04-09T00:05:11.461Z,99028.03
2023-04-09T00:07:38.225Z,99027.16
2023-04-09T00:10:05.630Z,99024.56
2023-04-09T00:12:32.196Z,99026.25
2023-04-09T00:14:59.002Z,99021.75
2023-04-09T00:17:25.759Z,99013.91
2023-04-09T00:19:52.606Z,99012.19
2023-04-09T00:22:19.294Z,99010.44
2023-04-09T00:24:46.206Z,99005.22
2023-04-09T00:27:12.910Z,99003.38
2023-04-09T00:29:39.666Z,98981.34
2023-04-09T00:32:06.760Z,99007.91
2023-04-09T00:34:33.635Z,99002.69
2023-04-09T00:37:00.594Z,99010.53
2023-04-09T00:39:27.410Z,99006.47
2023-04-09T00:41:59.479Z,99015.19
2023-04-09T00:44:26.258Z,99014.25
2023-04-09T00:46:54.086Z,99012.63
2023-04-09T00:49:21.875Z,99007.41
2023-04-09T00:51:48.916Z,99005.72
2023-04-09T00:54:16.303Z,99006.41
2023-04-09T00:56:42.933Z,99006.47
2023-04-09T00:59:09.654Z,99003.06
2023-04-09T01:01:36.548Z,99010.00
2023-04-09T01:04:03.676Z,99005.69
2023-04-09T01:06:49.676Z,99005.03
2023-04-09T01:09:37.294Z,99006.66
2023-04-09T01:12:31.727Z,99012.78
2023-04-09T01:15:11.137Z,99007.56
2023-04-09T01:17:43.770Z,99011.84
2023-04-09T01:20:19.088Z,99016.91
2023-04-09T01:23:11.094Z,99012.41
2023-04-09T01:26:19.357Z,99015.88
2023-04-09T01:28:55.947Z,99014.16
2023-04-09T01:31:30.330Z,99010.72
2023-04-09T01:33:58.834Z,99012.59
2023-04-09T01:36:27.389Z,99009.81
2023-04-09T01:38:56.301Z,99010.72
2023-04-09T01:41:24.494Z,98999.44
2023-04-09T01:43:52.188Z,98999.34
2023-04-09T01:46:21.091Z,99001.09
2023-04-09T01:48:48.824Z,98995.66
2023-04-09T01:51:15.887Z,99005.28
2023-04-09T01:53:42.636Z,98996.63
2023-04-09T01:56:10.003Z,99002.78
2023-04-09T01:58:36.794Z,99003.69
2023-04-09T02:01:09.614Z,99005.38
2023-04-09T02:03:43.177Z,98999.97
2023-04-09T02:06:22.600Z,98995.66
2023-04-09T02:08:51.623Z,99004.44
2023-04-09T02:11:21.239Z,98985.31
2023-04-09T02:13:49.980Z,98992.19
2023-04-09T02:16:17.816Z,98985.22
2023-04-09T02:18:44.674Z,99001.75
2023-04-09T02:21:13.766Z,98986.00
2023-04-09T02:23:40.839Z,98986.91
2023-04-09T02:26:07.555Z,98984.25
2023-04-09T02:28:34.412Z,98982.50
2023-04-09T02:31:01.734Z,98979.88
2023-04-09T02:33:30.452Z,98979.84
2023-04-09T02:35:57.203Z,98975.34
2023-04-09T02:38:24.654Z,98984.03
2023-04-09T02:40:51.374Z,98985.63
2023-04-09T02:43:18.133Z,98987.31
2023-04-09T02:45:44.822Z,98987.28
2023-04-09T02:48:11.607Z,98970.75
2023-04-09T02:50:38.336Z,98980.16
2023-04-09T02:53:05.115Z,98985.38
2023-04-09T02:55:31.883Z,98985.31
2023-04-09T02:57:58.805Z,98983.53
2023-04-09T03:00:25.627Z,98981.84
2023-04-09T03:02:53.407Z,98981.75
2023-04-09T03:05:21.078Z,98981.75
2023-04-09T03:07:47.819Z,98988.00
2023-04-09T03:10:14.590Z,98988.03
2023-04-09T03:12:41.365Z,98986.25
2023-04-09T03:15:08.342Z,98988.88
2023-04-09T03:17:35.045Z,98990.63
2023-04-09T03:20:01.983Z,98985.41
2023-04-09T03:22:39.452Z,98991.50
2023-04-09T03:25:38.852Z,98981.97
2023-04-09T03:28:12.228Z,98986.25
2023-04-09T03:30:43.869Z,98988.88
2023-04-09T03:33:11.420Z,98985.41
2023-04-09T03:35:52.088Z,98984.59
2023-04-09T03:38:27.380Z,98981.09
2023-04-09T03:40:56.382Z,98975.88
2023-04-09T03:43:23.159Z,98978.50
2023-04-09T03:45:52.591Z,98980.19
2023-04-09T03:48:23.117Z,98984.56
2023-04-09T03:50:51.811Z,98974.19
2023-04-09T03:53:24.911Z,98987.19
2023-04-09T03:55:53.819Z,98988.06
2023-04-09T03:58:24.652Z,98987.28
2023-04-09T04:00:52.316Z,98988.22
2023-04-09T04:03:33.441Z,98990.94
2023-04-09T04:06:13.766Z,98984.78
2023-04-09T04:08:51.276Z,98990.00
2023-04-09T04:11:21.415Z,98991.69
2023-04-09T04:13:52.473Z,98992.53
2023-04-09T04:16:19.750Z,98995.97
2023-04-09T04:18:46.520Z,98994.22
2023-04-09T04:21:14.654Z,99001.16
2023-04-09T04:23:44.926Z,98994.19
2023-04-09T04:26:24.506Z,98997.69
2023-04-09T04:28:51.535Z,98998.59
2023-04-09T04:31:36.982Z,98994.28
2023-04-09T04:34:03.878Z,99001.22
2023-04-09T04:36:30.784Z,98997.69
2023-04-09T04:38:57.551Z,99002.91
2023-04-09T04:41:32.475Z,98994.28
2023-04-09T04:44:19.442Z,99001.97
2023-04-09T04:46:47.715Z,99004.59
2023-04-09T04:49:14.631Z,99001.94
2023-04-09T04:51:46.507Z,99001.00
2023-04-09T04:54:15.278Z,99006.13
2023-04-09T04:56:49.441Z,99006.06
2023-04-09T04:59:27.690Z,99008.66
2023-04-09T05:02:02.674Z,99002.66
2023-04-09T05:04:33.528Z,99008.63
2023-04-09T05:07:00.534Z,99006.06
2023-04-09T05:09:27.732Z,99008.53
2023-04-09T05:12:04.404Z,99017.13
2023-04-09T05:14:31.542Z,99014.41
2023-04-09T05:16:58.557Z,99012.63
2023-04-09T05:19:31.119Z,99013.38
2023-04-09T05:22:01.437Z,99020.25
2023-04-09T05:24:28.184Z,99014.91
2023-04-09T05:26:54.900Z,99019.09
2023-04-09T05:29:22.313Z,99027.72
2023-04-09T05:31:49.045Z,99021.59
2023-04-09T05:34:30.479Z,99023.09
2023-04-09T05:36:57.722Z,99033.34
2023-04-09T05:39:25.768Z,99020.13
2023-04-09T05:41:53.094Z,99026.94
2023-04-09T05:44:36.358Z,99029.53
2023-04-09T05:47:14.618Z,99035.66
2023-04-09T05:49:47.677Z,99034.81
2023-04-09T05:52:17.097Z,99035.50
2023-04-09T05:54:44.155Z,99041.47
2023-04-09T05:57:12.093Z,99040.47
2023-04-09T05:59:42.760Z,99043.75
2023-04-09T06:02:09.569Z,99041.69
2023-04-09T06:04:36.385Z,99044.97
2023-04-09T06:07:03.218Z,99057.00
2023-04-09T06:09:29.989Z,99054.88
2023-04-09T06:11:57.805Z,99051.06
2023-04-09T06:14:24.629Z,99054.13
2023-04-09T06:16:51.378Z,99041.44
2023-04-09T06:19:18.742Z,99058.72
2023-04-09T06:21:45.382Z,99071.66
2023-04-09T06:24:12.086Z,99066.84
2023-04-09T06:26:38.881Z,99066.22
2023-04-09T06:29:05.579Z,99062.91
2023-04-09T06:31:33.352Z,99081.88
2023-04-09T06:34:03.114Z,99092.25
2023-04-09T06:36:30.429Z,99101.13
2023-04-09T06:38:56.973Z,99088.38
2023-04-09T06:41:23.803Z,99084.66
2023-04-09T06:43:51.069Z,99092.75
2023-04-09T06:46:20.334Z,99110.97
2023-04-09T06:48:47.771Z,99119.22
2023-04-09T06:51:15.099Z,99119.97
2023-04-09T06:53:42.152Z,99124.81
2023-04-09T06:56:08.958Z,99129.69
2023-04-09T06:58:35.658Z,99138.53
2023-04-09T07:01:02.998Z,99139.91
2023-04-09T07:03:30.368Z,99139.00
2023-04-09T07:05:57.705Z,99145.78
2023-04-09T07:08:24.612Z,99149.78
2023-04-09T07:10:51.519Z,99144.50
2023-04-09T07:13:18.258Z,99149.03
2023-04-09T07:15:45.063Z,99160.78
2023-04-09T07:18:11.773Z,56955.81
2023-04-09T07:20:38.614Z,56955.81
2023-04-09T07:23:05.340Z,56955.81
2023-04-09T07:25:32.484Z,56955.81
2023-04-09T07:27:59.235Z,56955.81
2023-04-09T07:30:25.989Z,56955.81
2023-04-09T07:32:52.932Z,56955.81
2023-04-09T07:35:19.764Z,56955.81
2023-04-09T07:37:46.549Z,56955.81
2023-04-09T07:40:13.344Z,56955.81
2023-04-09T07:42:40.769Z,56955.81
2023-04-09T07:45:07.960Z,56955.81
2023-04-09T07:47:34.640Z,56955.81
2023-04-09T07:50:01.340Z,56955.81
2023-04-09T07:52:28.133Z,56955.81
2023-04-09T07:54:54.920Z,56955.81
2023-04-09T07:57:22.173Z,56955.81
2023-04-09T07:59:48.895Z,56955.81
2023-04-09T08:02:16.200Z,56955.81
2023-04-09T08:04:45.798Z,56955.81
2023-04-09T08:08:10.793Z,56955.81
2023-04-09T08:11:15.676Z,56955.81
2023-04-09T08:14:41.422Z,56955.81
2023-04-09T08:18:07.171Z,56955.81
2023-04-09T08:21:32.669Z,56955.81
2023-04-09T08:25:00.276Z,56955.81
2023-04-09T08:28:29.564Z,56955.81
2023-04-09T08:31:55.351Z,56955.81
2023-04-09T08:35:20.702Z,56955.81
2023-04-09T08:38:47.203Z,56955.81
2023-04-09T08:42:24.060Z,56955.81
2023-04-09T08:45:49.465Z,56955.81
2023-04-09T08:49:15.774Z,56955.81
2023-04-09T08:52:46.185Z,56955.81
2023-04-09T08:56:11.513Z,56955.81
2023-04-09T08:59:38.114Z,56955.81
2023-04-09T09:03:08.446Z,56955.81
2023-04-09T09:06:44.943Z,56955.81
2023-04-09T09:10:13.974Z,56955.81
2023-04-09T09:13:40.282Z,56955.81
2023-04-09T09:17:12.628Z,56955.81
2023-04-09T09:20:38.199Z,56955.81
2023-04-09T09:24:16.603Z,56955.81
2023-04-09T09:27:41.899Z,56955.81
2023-04-09T09:31:11.418Z,56955.81
2023-04-09T09:34:36.920Z,56955.81
2023-04-09T09:38:22.128Z,56955.81
2023-04-09T09:41:48.871Z,56955.81
2023-04-09T09:45:32.202Z,56955.81
2023-04-09T09:48:57.614Z,56955.81
2023-04-09T09:52:27.020Z,56955.81
2023-04-09T09:55:53.868Z,56955.81
2023-04-09T09:59:23.357Z,56955.81
2023-04-09T10:03:07.374Z,56955.81
2023-04-09T10:06:34.509Z,56955.81
2023-04-09T10:10:02.601Z,56955.81
2023-04-09T10:13:36.135Z,56955.81
2023-04-09T10:17:04.048Z,56955.81
2023-04-09T10:20:35.672Z,56955.81
2023-04-09T10:24:06.554Z,56955.81
2023-04-09T10:27:32.730Z,56955.81
2023-04-09T10:30:58.471Z,56955.81
2023-04-09T10:34:27.995Z,56955.81
2023-04-09T10:37:56.513Z,56955.81
2023-04-09T10:41:22.936Z,56955.81
2023-04-09T10:45:03.811Z,56955.81
2023-04-09T10:48:36.097Z,56955.81
2023-04-09T10:52:03.259Z,56955.81
2023-04-09T10:55:38.686Z,56955.81
2023-04-09T10:59:04.667Z,56955.81
2023-04-09T11:02:56.545Z,56955.81
2023-04-09T11:06:28.218Z,56955.81
2023-04-09T11:09:53.421Z,56955.81
2023-04-09T11:13:20.706Z,56955.81
2023-04-09T11:16:47.962Z,56955.81
2023-04-09T11:20:24.697Z,56955.81
2023-04-09T11:23:54.244Z,56955.81
2023-04-09T11:27:22.901Z,56955.81
2023-04-09T11:30:54.072Z,56955.81
2023-04-09T11:34:19.689Z,56955.81
2023-04-09T11:37:47.646Z,56955.81
2023-04-09T11:41:14.171Z,56955.81
2023-04-09T11:44:39.492Z,56955.81
2023-04-09T11:48:04.898Z,56955.81
2023-04-09T11:51:32.747Z,56955.81
2023-04-09T11:55:02.081Z,56955.81
2023-04-09T11:58:47.695Z,56955.81
2023-04-09T12:02:17.480Z,56955.81
2023-04-09T12:05:51.217Z,56955.81
2023-04-09T12:09:05.651Z,56955.81
2023-04-09T12:12:31.256Z,56955.81
2023-04-09T12:15:58.725Z,56955.81
2023-04-09T12:19:25.811Z,56955.81
2023-04-09T12:22:51.866Z,56955.81
2023-04-09T12:26:17.171Z,56955.81
2023-04-09T12:28:45.083Z,56955.81
2023-04-09T12:32:10.415Z,56955.81
2023-04-09T12:34:37.382Z,56955.81
2023-04-09T12:38:02.744Z,56955.81
2023-04-09T12:40:35.739Z,56955.81
2023-04-09T12:43:03.835Z,56955.81
2023-04-09T12:45:31.383Z,56955.81
2023-04-09T12:48:56.806Z,56955.81
2023-04-09T12:52:22.625Z,56955.81
2023-04-09T12:55:47.876Z,56955.81
2023-04-09T12:59:13.188Z,56955.81
2023-04-09T13:02:38.802Z,56955.81
2023-04-09T13:06:04.445Z,56955.81
2023-04-09T13:08:31.364Z,56955.81
2023-04-09T13:10:58.129Z,56955.81
2023-04-09T13:13:25.173Z,99164.03
2023-04-09T13:15:52.219Z,56955.81
2023-04-09T13:18:18.937Z,56955.81
2023-04-09T13:20:48.874Z,56955.81
2023-04-09T13:23:15.989Z,99157.44
2023-04-09T13:25:42.605Z,99159.53
2023-04-09T13:28:09.936Z,56955.81
2023-04-09T13:30:36.676Z,56955.81
2023-04-09T13:33:03.714Z,99152.25
2023-04-09T13:35:30.817Z,56955.81
2023-04-09T13:37:57.537Z,56955.81
2023-04-09T13:40:24.282Z,56955.81
2023-04-09T13:44:35.233Z,99139.44
2023-04-09T13:47:02.040Z,99139.44
2023-04-09T13:49:30.377Z,99142.38
2023-04-09T13:51:57.730Z,99143.50
2023-04-09T13:54:29.769Z,56955.81
2023-04-09T13:57:36.537Z,56955.81
2023-04-09T14:00:05.137Z,56955.81
2023-04-09T14:02:57.907Z,56955.81
2023-04-09T14:05:28.725Z,56955.81
2023-04-09T14:08:01.281Z,56955.81
2023-04-09T14:10:28.081Z,56955.81
2023-04-09T14:12:54.779Z,56955.81
2023-04-09T14:15:22.152Z,56955.81
2023-04-09T14:18:47.398Z,56955.81
2023-04-09T14:22:10.434Z,56955.81
2023-04-09T14:25:36.762Z,56955.81
2023-04-09T14:29:02.072Z,56955.81
2023-04-09T14:32:27.293Z,56955.81
2023-04-09T14:35:52.865Z,56955.81
2023-04-09T14:39:18.403Z,56955.81
2023-04-09T14:42:43.700Z,56955.81
2023-04-09T14:46:12.135Z,56955.81
2023-04-09T14:49:37.611Z,56955.81
2023-04-09T14:53:03.800Z,56955.81
2023-04-09T14:56:29.016Z,56955.81
2023-04-09T14:59:54.439Z,56955.81
2023-04-09T15:03:19.919Z,56955.81
2023-04-09T15:06:45.450Z,56955.81
2023-04-09T15:10:11.098Z,56955.81
2023-04-09T15:13:36.421Z,56955.81
2023-04-09T15:17:01.676Z,56955.81
2023-04-09T15:20:26.886Z,56955.81
2023-04-09T15:23:52.613Z,56955.81
2023-04-09T15:27:18.152Z,56955.81
2023-04-09T15:30:43.465Z,56955.81
2023-04-09T15:34:08.831Z,56955.81
2023-04-09T15:37:34.039Z,56955.81
2023-04-09T15:40:59.206Z,56955.81
2023-04-09T15:44:24.716Z,56955.81
2023-04-09T15:47:50.010Z,56955.81
2023-04-09T15:51:16.682Z,56955.81
2023-04-09T15:54:41.851Z,56955.81
2023-04-09T15:58:07.218Z,56955.81
2023-04-09T16:01:32.823Z,56955.81
2023-04-09T16:04:58.100Z,56955.81
2023-04-09T16:08:23.350Z,56955.81
2023-04-09T16:11:48.517Z,56955.81
2023-04-09T16:15:13.713Z,56955.81
2023-04-09T16:18:38.966Z,56955.81
2023-04-09T16:22:04.296Z,56955.81
2023-04-09T16:25:29.602Z,56955.81
2023-04-09T16:28:55.169Z,56955.81
2023-04-09T16:32:20.589Z,56955.81
2023-04-09T16:35:45.851Z,56955.81
2023-04-09T16:39:11.411Z,56955.81
2023-04-09T16:42:36.888Z,56955.81
2023-04-09T16:46:07.337Z,56955.81
2023-04-09T16:49:32.702Z,56955.81
2023-04-09T16:52:58.108Z,56955.81
2023-04-09T16:56:23.321Z,56955.81
2023-04-09T16:59:48.492Z,56955.81
2023-04-09T17:03:13.796Z,56955.81
2023-04-09T17:06:39.116Z,56955.81
2023-04-09T17:10:04.546Z,56955.81
2023-04-09T17:13:31.605Z,56955.81
2023-04-09T17:16:56.955Z,56955.81
2023-04-09T17:20:22.744Z,56955.81
2023-04-09T17:23:47.995Z,56955.81
2023-04-09T17:27:13.476Z,56955.81
2023-04-09T17:30:38.675Z,56955.81
2023-04-09T17:34:04.018Z,56955.81
2023-04-09T17:37:29.327Z,56955.81
2023-04-09T17:40:54.715Z,56955.81
2023-04-09T17:44:20.628Z,56955.81
2023-04-09T17:47:45.946Z,56955.81
2023-04-09T17:51:16.587Z,56955.81
2023-04-09T17:54:45.466Z,56955.81
2023-04-09T17:58:10.945Z,56955.81
2023-04-09T18:01:37.910Z,56955.81
2023-04-09T18:05:06.271Z,56955.81
2023-04-09T18:08:31.633Z,56955.81
2023-04-09T18:11:59.244Z,56955.81
2023-04-09T18:15:24.404Z,56955.81
2023-04-09T18:18:49.838Z,56955.81
2023-04-09T18:22:15.176Z,56955.81
2023-04-09T18:25:40.561Z,56955.81
2023-04-09T18:29:05.933Z,56955.81
2023-04-09T18:32:32.371Z,56955.81
2023-04-09T18:35:59.514Z,56955.81
2023-04-09T18:39:24.778Z,56955.81
2023-04-09T18:42:52.418Z,56955.81
2023-04-09T18:46:18.217Z,56955.81
2023-04-09T18:49:46.535Z,56955.81
2023-04-09T18:53:11.739Z,56955.81
2023-04-09T18:56:37.534Z,56955.81
2023-04-09T19:00:04.047Z,56955.81
2023-04-09T19:03:30.764Z,56955.81
2023-04-09T19:06:56.363Z,56955.81
2023-04-09T19:10:21.856Z,56955.81
2023-04-09T19:13:47.097Z,56955.81
2023-04-09T19:17:12.481Z,56955.81
2023-04-09T19:20:37.854Z,56955.81
2023-04-09T19:24:05.913Z,56955.81
2023-04-09T19:27:31.570Z,56955.81
2023-04-09T19:30:56.923Z,56955.81
2023-04-09T19:34:23.186Z,56955.81
2023-04-09T19:37:48.715Z,56955.81
2023-04-09T19:41:13.971Z,56955.81
2023-04-09T19:44:39.171Z,56955.81
2023-04-09T19:48:07.551Z,56955.81
2023-04-09T19:51:33.659Z,56955.81
2023-04-09T19:54:58.973Z,56955.81
2023-04-09T19:58:24.155Z,56955.81
2023-04-09T20:01:49.443Z,56955.81
2023-04-09T20:05:15.495Z,56955.81
2023-04-09T20:08:41.002Z,56955.81
2023-04-09T20:12:08.670Z,56955.81
2023-04-09T20:15:34.618Z,56955.81
2023-04-09T20:18:59.831Z,56955.81
2023-04-09T20:22:25.379Z,56955.81
2023-04-09T20:25:54.145Z,56955.81
2023-04-09T20:29:19.690Z,56955.81
2023-04-09T20:32:44.951Z,56955.81
2023-04-09T20:36:16.894Z,56955.81
2023-04-09T20:39:42.185Z,56955.81
2023-04-09T20:43:07.356Z,56955.81
2023-04-09T20:46:32.541Z,56955.81
2023-04-09T20:49:59.924Z,56955.81
2023-04-09T20:53:28.670Z,56955.81
2023-04-09T20:56:54.408Z,56955.81
2023-04-09T21:00:19.627Z,56955.81
2023-04-09T21:03:44.982Z,56955.81
2023-04-09T21:07:10.452Z,56955.81
2023-04-09T21:10:35.692Z,56955.81
2023-04-09T21:14:01.130Z,56955.81
2023-04-09T21:17:26.453Z,56955.81
2023-04-09T21:20:51.750Z,56955.81
2023-04-09T21:24:18.324Z,56955.81
2023-04-09T21:27:43.599Z,56955.81
2023-04-09T21:31:10.092Z,56955.81
2023-04-09T21:34:37.254Z,56955.81
2023-04-09T21:38:03.104Z,56955.81
2023-04-09T21:41:28.713Z,56955.81
2023-04-09T21:44:53.975Z,56955.81
2023-04-09T21:48:19.244Z,56955.81
2023-04-09T21:51:47.618Z,56955.81
2023-04-09T21:55:13.968Z,56955.81
2023-04-09T21:58:39.234Z,56955.81
2023-04-09T22:02:04.893Z,56955.81
2023-04-09T22:05:32.115Z,56955.81
2023-04-09T22:08:58.168Z,56955.81
2023-04-09T22:12:24.631Z,56955.81
2023-04-09T22:15:49.870Z,56955.81
2023-04-09T22:19:15.347Z,56955.81
2023-04-09T22:22:42.085Z,56955.81
2023-04-09T22:26:07.619Z,56955.81
2023-04-09T22:29:32.887Z,56955.81
2023-04-09T22:32:58.283Z,56955.81
2023-04-09T22:36:23.626Z,56955.81
2023-04-09T22:39:48.960Z,56955.81
2023-04-09T22:43:14.374Z,56955.81
2023-04-09T22:46:39.611Z,56955.81
2023-04-09T22:50:07.816Z,56955.81
2023-04-09T22:53:33.086Z,56955.81
2023-04-09T22:56:58.365Z,56955.81
2023-04-09T23:00:23.732Z,56955.81
2023-04-09T23:03:51.784Z,56955.81
2023-04-09T23:07:17.020Z,56955.81
2023-04-09T23:10:43.395Z,56955.81
2023-04-09T23:14:08.618Z,56955.81
2023-04-09T23:17:35.143Z,56955.81
2023-04-09T23:21:09.980Z,56955.81
2023-04-09T23:24:35.808Z,56955.81
2023-04-09T23:28:00.805Z,56955.81
2023-04-09T23:31:26.233Z,56955.81
2023-04-09T23:34:51.400Z,56955.81
2023-04-09T23:38:17.943Z,56955.81
2023-04-09T23:41:43.253Z,56955.81
2023-04-09T23:45:05.441Z,56955.81
2023-04-09T23:48:31.231Z,56955.81
2023-04-09T23:51:56.474Z,56955.81
2023-04-09T23:55:21.699Z,56955.81
2023-04-09T23:58:46.918Z,56955.81
